sensor_id;sensor_type;location;lat;lon;timestamp;P1;durP1;ratioP1;P2;durP2;ratioP2
55210;SDS011;41082;52.822;6.666;2023-08-21T00:02:17;2.67;;;0.35;;
55210;SDS011;41082;52.822;6.666;2023-08-21T00:04:43;1.98;;;0.30;;
55210;SDS011;41082;52.822;6.666;2023-08-21T00:07:09;1.45;;;0.20;;
55210;SDS011;41082;52.822;6.666;2023-08-21T00:09:35;0.82;;;0.17;;
55210;SDS011;41082;52.822;6.666;2023-08-21T00:12:01;2.63;;;0.10;;
55210;SDS011;41082;52.822;6.666;2023-08-21T00:14:26;0.82;;;0.20;;
55210;SDS011;41082;52.822;6.666;2023-08-21T00:16:52;2.22;;;0.22;;
55210;SDS011;41082;52.822;6.666;2023-08-21T00:19:17;2.08;;;0.30;;
55210;SDS011;41082;52.822;6.666;2023-08-21T00:21:43;1.80;;;0.30;;
55210;SDS011;41082;52.822;6.666;2023-08-21T00:24:09;2.13;;;0.38;;
55210;SDS011;41082;52.822;6.666;2023-08-21T00:26:34;1.30;;;0.30;;
55210;SDS011;41082;52.822;6.666;2023-08-21T00:29:00;5.28;;;0.43;;
55210;SDS011;41082;52.822;6.666;2023-08-21T00:31:25;2.28;;;1.15;;
55210;SDS011;41082;52.822;6.666;2023-08-21T00:33:51;2.72;;;0.55;;
55210;SDS011;41082;52.822;6.666;2023-08-21T00:36:16;1.33;;;0.32;;
55210;SDS011;41082;52.822;6.666;2023-08-21T00:38:42;1.27;;;0.32;;
55210;SDS011;41082;52.822;6.666;2023-08-21T00:41:08;1.25;;;0.25;;
55210;SDS011;41082;52.822;6.666;2023-08-21T00:43:36;1.10;;;0.30;;
55210;SDS011;41082;52.822;6.666;2023-08-21T00:46:02;0.90;;;0.30;;
55210;SDS011;41082;52.822;6.666;2023-08-21T00:48:28;0.88;;;0.30;;
55210;SDS011;41082;52.822;6.666;2023-08-21T00:50:54;2.25;;;0.30;;
55210;SDS011;41082;52.822;6.666;2023-08-21T00:53:20;1.38;;;0.40;;
55210;SDS011;41082;52.822;6.666;2023-08-21T00:55:46;2.17;;;0.60;;
55210;SDS011;41082;52.822;6.666;2023-08-21T00:58:12;1.77;;;0.60;;
55210;SDS011;41082;52.822;6.666;2023-08-21T01:00:38;1.15;;;0.40;;
55210;SDS011;41082;52.822;6.666;2023-08-21T01:03:06;1.70;;;0.40;;
55210;SDS011;41082;52.822;6.666;2023-08-21T01:05:31;4.80;;;0.80;;
55210;SDS011;41082;52.822;6.666;2023-08-21T01:08:05;2.85;;;0.50;;
55210;SDS011;41082;52.822;6.666;2023-08-21T01:10:45;0.85;;;0.30;;
55210;SDS011;41082;52.822;6.666;2023-08-21T01:13:26;2.50;;;0.28;;
55210;SDS011;41082;52.822;6.666;2023-08-21T01:15:55;0.95;;;0.30;;
55210;SDS011;41082;52.822;6.666;2023-08-21T01:18:22;2.60;;;0.35;;
55210;SDS011;41082;52.822;6.666;2023-08-21T01:20:48;1.48;;;0.20;;
55210;SDS011;41082;52.822;6.666;2023-08-21T01:23:26;2.45;;;0.50;;
55210;SDS011;41082;52.822;6.666;2023-08-21T01:25:58;2.13;;;0.40;;
55210;SDS011;41082;52.822;6.666;2023-08-21T01:28:23;2.00;;;0.55;;
55210;SDS011;41082;52.822;6.666;2023-08-21T01:30:50;1.85;;;0.30;;
55210;SDS011;41082;52.822;6.666;2023-08-21T01:33:19;5.13;;;0.43;;
55210;SDS011;41082;52.822;6.666;2023-08-21T01:35:47;1.73;;;0.30;;
55210;SDS011;41082;52.822;6.666;2023-08-21T01:38:14;1.52;;;0.38;;
55210;SDS011;41082;52.822;6.666;2023-08-21T01:40:39;1.10;;;0.57;;
55210;SDS011;41082;52.822;6.666;2023-08-21T01:43:05;2.85;;;0.55;;
55210;SDS011;41082;52.822;6.666;2023-08-21T01:45:31;1.42;;;0.30;;
55210;SDS011;41082;52.822;6.666;2023-08-21T01:47:56;0.85;;;0.30;;
55210;SDS011;41082;52.822;6.666;2023-08-21T01:50:22;2.03;;;0.50;;
55210;SDS011;41082;52.822;6.666;2023-08-21T01:52:48;2.40;;;0.60;;
55210;SDS011;41082;52.822;6.666;2023-08-21T01:55:13;4.13;;;0.40;;
55210;SDS011;41082;52.822;6.666;2023-08-21T01:57:39;4.60;;;0.73;;
55210;SDS011;41082;52.822;6.666;2023-08-21T02:00:04;3.63;;;0.40;;
55210;SDS011;41082;52.822;6.666;2023-08-21T02:02:31;3.25;;;0.40;;
55210;SDS011;41082;52.822;6.666;2023-08-21T02:04:57;0.73;;;0.35;;
55210;SDS011;41082;52.822;6.666;2023-08-21T02:07:22;1.48;;;0.47;;
55210;SDS011;41082;52.822;6.666;2023-08-21T02:09:48;2.42;;;0.40;;
55210;SDS011;41082;52.822;6.666;2023-08-21T02:12:14;2.50;;;0.50;;
55210;SDS011;41082;52.822;6.666;2023-08-21T02:14:39;1.55;;;0.43;;
55210;SDS011;41082;52.822;6.666;2023-08-21T02:17:05;1.25;;;0.40;;
55210;SDS011;41082;52.822;6.666;2023-08-21T02:19:30;1.25;;;0.32;;
55210;SDS011;41082;52.822;6.666;2023-08-21T02:21:56;2.17;;;0.30;;
55210;SDS011;41082;52.822;6.666;2023-08-21T02:24:22;1.73;;;0.40;;
55210;SDS011;41082;52.822;6.666;2023-08-21T02:26:47;3.90;;;0.47;;
55210;SDS011;41082;52.822;6.666;2023-08-21T02:29:13;2.10;;;0.50;;
55210;SDS011;41082;52.822;6.666;2023-08-21T02:31:38;3.75;;;0.70;;
55210;SDS011;41082;52.822;6.666;2023-08-21T02:34:04;1.05;;;0.40;;
55210;SDS011;41082;52.822;6.666;2023-08-21T02:36:30;0.63;;;0.35;;
55210;SDS011;41082;52.822;6.666;2023-08-21T02:38:55;5.95;;;0.50;;
55210;SDS011;41082;52.822;6.666;2023-08-21T02:41:21;2.72;;;0.68;;
55210;SDS011;41082;52.822;6.666;2023-08-21T02:43:46;1.55;;;0.47;;
55210;SDS011;41082;52.822;6.666;2023-08-21T02:46:12;1.98;;;0.50;;
55210;SDS011;41082;52.822;6.666;2023-08-21T02:48:37;1.35;;;0.30;;
55210;SDS011;41082;52.822;6.666;2023-08-21T02:51:03;0.95;;;0.30;;
55210;SDS011;41082;52.822;6.666;2023-08-21T02:53:29;1.15;;;0.30;;
55210;SDS011;41082;52.822;6.666;2023-08-21T02:55:54;2.45;;;0.20;;
55210;SDS011;41082;52.822;6.666;2023-08-21T02:58:20;3.55;;;0.70;;
55210;SDS011;41082;52.822;6.666;2023-08-21T03:00:46;2.63;;;0.35;;
55210;SDS011;41082;52.822;6.666;2023-08-21T03:03:11;1.52;;;0.40;;
55210;SDS011;41082;52.822;6.666;2023-08-21T03:05:37;5.28;;;0.50;;
55210;SDS011;41082;52.822;6.666;2023-08-21T03:08:02;0.77;;;0.30;;
55210;SDS011;41082;52.822;6.666;2023-08-21T03:10:28;1.05;;;0.30;;
55210;SDS011;41082;52.822;6.666;2023-08-21T03:12:58;0.68;;;0.20;;
55210;SDS011;41082;52.822;6.666;2023-08-21T03:15:24;0.30;;;0.10;;
55210;SDS011;41082;52.822;6.666;2023-08-21T03:17:50;0.85;;;0.28;;
55210;SDS011;41082;52.822;6.666;2023-08-21T03:20:15;1.23;;;0.30;;
55210;SDS011;41082;52.822;6.666;2023-08-21T03:22:42;2.00;;;0.30;;
55210;SDS011;41082;52.822;6.666;2023-08-21T03:25:08;1.00;;;0.30;;
55210;SDS011;41082;52.822;6.666;2023-08-21T03:27:34;2.40;;;0.40;;
55210;SDS011;41082;52.822;6.666;2023-08-21T03:30:04;2.80;;;0.73;;
55210;SDS011;41082;52.822;6.666;2023-08-21T03:32:32;3.88;;;0.50;;
55210;SDS011;41082;52.822;6.666;2023-08-21T03:34:58;1.35;;;0.40;;
55210;SDS011;41082;52.822;6.666;2023-08-21T03:37:23;5.18;;;0.82;;
55210;SDS011;41082;52.822;6.666;2023-08-21T03:39:49;1.40;;;0.40;;
55210;SDS011;41082;52.822;6.666;2023-08-21T03:42:14;1.50;;;0.38;;
55210;SDS011;41082;52.822;6.666;2023-08-21T03:44:40;1.20;;;0.20;;
55210;SDS011;41082;52.822;6.666;2023-08-21T03:47:05;2.60;;;0.47;;
55210;SDS011;41082;52.822;6.666;2023-08-21T03:49:31;1.35;;;0.30;;
55210;SDS011;41082;52.822;6.666;2023-08-21T03:51:56;2.85;;;0.30;;
55210;SDS011;41082;52.822;6.666;2023-08-21T03:54:22;1.15;;;0.20;;
55210;SDS011;41082;52.822;6.666;2023-08-21T03:56:48;3.30;;;0.20;;
55210;SDS011;41082;52.822;6.666;2023-08-21T03:59:13;0.70;;;0.10;;
55210;SDS011;41082;52.822;6.666;2023-08-21T04:01:39;0.32;;;0.08;;
55210;SDS011;41082;52.822;6.666;2023-08-21T04:04:04;0.90;;;0.10;;
55210;SDS011;41082;52.822;6.666;2023-08-21T04:06:30;0.20;;;0.10;;
55210;SDS011;41082;52.822;6.666;2023-08-21T04:08:55;0.15;;;0.10;;
55210;SDS011;41082;52.822;6.666;2023-08-21T04:11:21;1.02;;;0.30;;
55210;SDS011;41082;52.822;6.666;2023-08-21T04:13:46;0.30;;;0.10;;
55210;SDS011;41082;52.822;6.666;2023-08-21T04:16:12;1.10;;;0.20;;
55210;SDS011;41082;52.822;6.666;2023-08-21T04:18:38;0.60;;;0.10;;
55210;SDS011;41082;52.822;6.666;2023-08-21T04:21:04;1.48;;;0.30;;
55210;SDS011;41082;52.822;6.666;2023-08-21T04:23:29;0.30;;;0.10;;
55210;SDS011;41082;52.822;6.666;2023-08-21T04:26:02;0.63;;;0.20;;
55210;SDS011;41082;52.822;6.666;2023-08-21T04:28:29;1.45;;;0.20;;
55210;SDS011;41082;52.822;6.666;2023-08-21T04:30:55;0.38;;;0.10;;
55210;SDS011;41082;52.822;6.666;2023-08-21T04:33:23;0.50;;;0.17;;
55210;SDS011;41082;52.822;6.666;2023-08-21T04:35:50;2.30;;;0.20;;
55210;SDS011;41082;52.822;6.666;2023-08-21T04:38:15;0.98;;;0.20;;
55210;SDS011;41082;52.822;6.666;2023-08-21T04:40:41;0.98;;;0.30;;
55210;SDS011;41082;52.822;6.666;2023-08-21T04:43:06;1.10;;;0.20;;
55210;SDS011;41082;52.822;6.666;2023-08-21T04:45:32;0.30;;;0.20;;
55210;SDS011;41082;52.822;6.666;2023-08-21T04:47:58;1.48;;;0.20;;
55210;SDS011;41082;52.822;6.666;2023-08-21T04:50:23;0.20;;;0.20;;
55210;SDS011;41082;52.822;6.666;2023-08-21T04:52:49;0.38;;;0.10;;
55210;SDS011;41082;52.822;6.666;2023-08-21T04:55:15;0.00;;;0.00;;
55210;SDS011;41082;52.822;6.666;2023-08-21T04:57:41;1.38;;;0.10;;
55210;SDS011;41082;52.822;6.666;2023-08-21T05:00:07;0.45;;;0.03;;
55210;SDS011;41082;52.822;6.666;2023-08-21T05:02:34;0.65;;;0.13;;
55210;SDS011;41082;52.822;6.666;2023-08-21T05:05:00;0.20;;;0.00;;
55210;SDS011;41082;52.822;6.666;2023-08-21T05:07:25;0.10;;;0.00;;
55210;SDS011;41082;52.822;6.666;2023-08-21T05:09:52;0.40;;;0.10;;
55210;SDS011;41082;52.822;6.666;2023-08-21T05:12:17;1.90;;;0.10;;
55210;SDS011;41082;52.822;6.666;2023-08-21T05:14:43;1.08;;;0.10;;
55210;SDS011;41082;52.822;6.666;2023-08-21T05:17:09;0.90;;;0.13;;
55210;SDS011;41082;52.822;6.666;2023-08-21T05:19:34;0.25;;;0.00;;
55210;SDS011;41082;52.822;6.666;2023-08-21T05:22:00;0.55;;;0.10;;
55210;SDS011;41082;52.822;6.666;2023-08-21T05:24:25;0.20;;;0.10;;
55210;SDS011;41082;52.822;6.666;2023-08-21T05:26:51;0.30;;;0.00;;
55210;SDS011;41082;52.822;6.666;2023-08-21T05:29:16;0.20;;;0.00;;
55210;SDS011;41082;52.822;6.666;2023-08-21T05:31:42;1.25;;;0.10;;
55210;SDS011;41082;52.822;6.666;2023-08-21T05:34:08;2.05;;;0.03;;
55210;SDS011;41082;52.822;6.666;2023-08-21T05:36:33;2.15;;;0.10;;
55210;SDS011;41082;52.822;6.666;2023-08-21T05:39:02;0.95;;;0.35;;
55210;SDS011;41082;52.822;6.666;2023-08-21T05:41:31;1.83;;;0.28;;
55210;SDS011;41082;52.822;6.666;2023-08-21T05:43:57;2.92;;;0.40;;
55210;SDS011;41082;52.822;6.666;2023-08-21T05:46:23;2.08;;;0.45;;
55210;SDS011;41082;52.822;6.666;2023-08-21T05:48:49;1.95;;;0.38;;
55210;SDS011;41082;52.822;6.666;2023-08-21T05:51:14;1.15;;;0.30;;
55210;SDS011;41082;52.822;6.666;2023-08-21T05:53:40;1.75;;;0.60;;
55210;SDS011;41082;52.822;6.666;2023-08-21T05:56:05;1.23;;;0.40;;
55210;SDS011;41082;52.822;6.666;2023-08-21T05:58:31;1.75;;;0.50;;
55210;SDS011;41082;52.822;6.666;2023-08-21T06:00:58;1.52;;;0.40;;
55210;SDS011;41082;52.822;6.666;2023-08-21T06:03:24;2.85;;;0.55;;
55210;SDS011;41082;52.822;6.666;2023-08-21T06:05:49;2.85;;;0.40;;
55210;SDS011;41082;52.822;6.666;2023-08-21T06:08:15;1.20;;;0.30;;
55210;SDS011;41082;52.822;6.666;2023-08-21T06:10:40;3.08;;;0.45;;
55210;SDS011;41082;52.822;6.666;2023-08-21T06:13:06;1.35;;;0.40;;
55210;SDS011;41082;52.822;6.666;2023-08-21T06:15:31;0.88;;;0.35;;
55210;SDS011;41082;52.822;6.666;2023-08-21T06:17:58;3.88;;;0.30;;
55210;SDS011;41082;52.822;6.666;2023-08-21T06:20:24;3.83;;;0.70;;
55210;SDS011;41082;52.822;6.666;2023-08-21T06:22:49;3.58;;;0.70;;
55210;SDS011;41082;52.822;6.666;2023-08-21T06:25:15;2.53;;;0.50;;
55210;SDS011;41082;52.822;6.666;2023-08-21T06:27:41;2.05;;;0.63;;
55210;SDS011;41082;52.822;6.666;2023-08-21T06:30:06;5.32;;;0.60;;
55210;SDS011;41082;52.822;6.666;2023-08-21T06:32:32;1.33;;;0.60;;
55210;SDS011;41082;52.822;6.666;2023-08-21T06:34:58;4.10;;;0.75;;
55210;SDS011;41082;52.822;6.666;2023-08-21T06:37:24;3.05;;;0.82;;
55210;SDS011;41082;52.822;6.666;2023-08-21T06:39:50;4.82;;;1.58;;
55210;SDS011;41082;52.822;6.666;2023-08-21T06:42:15;3.92;;;1.08;;
55210;SDS011;41082;52.822;6.666;2023-08-21T06:44:41;5.05;;;1.30;;
55210;SDS011;41082;52.822;6.666;2023-08-21T06:47:06;8.77;;;1.58;;
55210;SDS011;41082;52.822;6.666;2023-08-21T06:49:32;5.10;;;1.60;;
55210;SDS011;41082;52.822;6.666;2023-08-21T06:51:58;8.43;;;1.55;;
55210;SDS011;41082;52.822;6.666;2023-08-21T06:54:24;6.03;;;1.77;;
55210;SDS011;41082;52.822;6.666;2023-08-21T06:56:49;5.32;;;1.50;;
55210;SDS011;41082;52.822;6.666;2023-08-21T06:59:15;9.10;;;1.98;;
55210;SDS011;41082;52.822;6.666;2023-08-21T07:01:40;5.75;;;1.58;;
55210;SDS011;41082;52.822;6.666;2023-08-21T07:04:06;7.05;;;2.03;;
55210;SDS011;41082;52.822;6.666;2023-08-21T07:06:32;6.32;;;1.65;;
55210;SDS011;41082;52.822;6.666;2023-08-21T07:08:57;6.65;;;1.77;;
55210;SDS011;41082;52.822;6.666;2023-08-21T07:11:23;3.10;;;1.00;;
55210;SDS011;41082;52.822;6.666;2023-08-21T07:13:49;5.78;;;1.20;;
55210;SDS011;41082;52.822;6.666;2023-08-21T07:16:14;8.63;;;1.52;;
55210;SDS011;41082;52.822;6.666;2023-08-21T07:18:40;5.80;;;1.10;;
55210;SDS011;41082;52.822;6.666;2023-08-21T07:21:06;6.55;;;1.00;;
55210;SDS011;41082;52.822;6.666;2023-08-21T07:23:31;5.65;;;0.93;;
55210;SDS011;41082;52.822;6.666;2023-08-21T07:25:58;3.28;;;0.70;;
55210;SDS011;41082;52.822;6.666;2023-08-21T07:28:24;4.68;;;1.15;;
55210;SDS011;41082;52.822;6.666;2023-08-21T07:30:59;6.15;;;1.30;;
55210;SDS011;41082;52.822;6.666;2023-08-21T07:33:25;5.90;;;1.20;;
55210;SDS011;41082;52.822;6.666;2023-08-21T07:36:01;7.45;;;0.98;;
55210;SDS011;41082;52.822;6.666;2023-08-21T07:38:28;3.83;;;0.82;;
55210;SDS011;41082;52.822;6.666;2023-08-21T07:41:27;7.72;;;0.60;;
55210;SDS011;41082;52.822;6.666;2023-08-21T07:43:46;4.82;;;0.88;;
55210;SDS011;41082;52.822;6.666;2023-08-21T07:46:12;2.38;;;0.57;;
55210;SDS011;41082;52.822;6.666;2023-08-21T07:48:41;5.18;;;0.65;;
55210;SDS011;41082;52.822;6.666;2023-08-21T07:51:08;3.72;;;0.80;;
55210;SDS011;41082;52.822;6.666;2023-08-21T07:53:33;4.47;;;0.60;;
55210;SDS011;41082;52.822;6.666;2023-08-21T07:55:59;6.60;;;0.65;;
55210;SDS011;41082;52.822;6.666;2023-08-21T07:58:26;3.60;;;0.40;;
55210;SDS011;41082;52.822;6.666;2023-08-21T08:00:52;3.90;;;0.50;;
55210;SDS011;41082;52.822;6.666;2023-08-21T08:03:17;4.13;;;0.60;;
55210;SDS011;41082;52.822;6.666;2023-08-21T08:05:43;5.20;;;1.08;;
55210;SDS011;41082;52.822;6.666;2023-08-21T08:08:08;4.53;;;0.52;;
55210;SDS011;41082;52.822;6.666;2023-08-21T08:10:38;2.95;;;0.45;;
55210;SDS011;41082;52.822;6.666;2023-08-21T08:13:04;3.60;;;0.50;;
55210;SDS011;41082;52.822;6.666;2023-08-21T08:15:30;4.10;;;0.40;;
55210;SDS011;41082;52.822;6.666;2023-08-21T08:17:56;4.78;;;0.40;;
55210;SDS011;41082;52.822;6.666;2023-08-21T08:20:22;4.70;;;0.50;;
55210;SDS011;41082;52.822;6.666;2023-08-21T08:22:48;4.40;;;0.45;;
55210;SDS011;41082;52.822;6.666;2023-08-21T08:25:13;3.97;;;0.35;;
55210;SDS011;41082;52.822;6.666;2023-08-21T08:27:39;4.05;;;0.40;;
55210;SDS011;41082;52.822;6.666;2023-08-21T08:30:05;7.25;;;0.57;;
55210;SDS011;41082;52.822;6.666;2023-08-21T08:32:31;4.68;;;0.40;;
55210;SDS011;41082;52.822;6.666;2023-08-21T08:34:57;4.72;;;0.68;;
55210;SDS011;41082;52.822;6.666;2023-08-21T08:37:22;4.07;;;0.30;;
55210;SDS011;41082;52.822;6.666;2023-08-21T08:39:48;2.20;;;0.40;;
55210;SDS011;41082;52.822;6.666;2023-08-21T08:42:14;3.97;;;0.50;;
55210;SDS011;41082;52.822;6.666;2023-08-21T08:44:41;3.55;;;0.30;;
55210;SDS011;41082;52.822;6.666;2023-08-21T08:47:07;3.00;;;0.30;;
55210;SDS011;41082;52.822;6.666;2023-08-21T08:49:34;2.92;;;0.32;;
55210;SDS011;41082;52.822;6.666;2023-08-21T08:52:00;4.07;;;0.47;;
55210;SDS011;41082;52.822;6.666;2023-08-21T08:54:26;3.53;;;0.40;;
55210;SDS011;41082;52.822;6.666;2023-08-21T08:56:52;2.80;;;0.30;;
55210;SDS011;41082;52.822;6.666;2023-08-21T08:59:18;5.20;;;0.40;;
55210;SDS011;41082;52.822;6.666;2023-08-21T09:01:44;1.80;;;0.28;;
55210;SDS011;41082;52.822;6.666;2023-08-21T09:04:10;3.97;;;0.45;;
55210;SDS011;41082;52.822;6.666;2023-08-21T09:06:36;3.90;;;0.40;;
55210;SDS011;41082;52.822;6.666;2023-08-21T09:09:03;2.25;;;0.35;;
55210;SDS011;41082;52.822;6.666;2023-08-21T09:11:29;4.63;;;0.60;;
55210;SDS011;41082;52.822;6.666;2023-08-21T09:13:55;1.55;;;0.20;;
55210;SDS011;41082;52.822;6.666;2023-08-21T09:16:21;1.48;;;0.20;;
55210;SDS011;41082;52.822;6.666;2023-08-21T09:21:19;4.43;;;0.30;;
55210;SDS011;41082;52.822;6.666;2023-08-21T09:23:45;3.72;;;0.43;;
55210;SDS011;41082;52.822;6.666;2023-08-21T09:26:17;2.30;;;0.28;;
55210;SDS011;41082;52.822;6.666;2023-08-21T09:28:47;2.33;;;0.22;;
55210;SDS011;41082;52.822;6.666;2023-08-21T09:31:13;3.80;;;0.63;;
55210;SDS011;41082;52.822;6.666;2023-08-21T09:33:39;2.45;;;0.57;;
55210;SDS011;41082;52.822;6.666;2023-08-21T09:36:05;4.47;;;0.40;;
55210;SDS011;41082;52.822;6.666;2023-08-21T09:38:31;4.00;;;0.50;;
55210;SDS011;41082;52.822;6.666;2023-08-21T09:40:59;2.03;;;0.25;;
55210;SDS011;41082;52.822;6.666;2023-08-21T09:43:24;4.15;;;0.32;;
55210;SDS011;41082;52.822;6.666;2023-08-21T09:45:50;3.03;;;0.50;;
55210;SDS011;41082;52.822;6.666;2023-08-21T09:48:19;2.83;;;0.35;;
55210;SDS011;41082;52.822;6.666;2023-08-21T09:50:46;2.95;;;0.28;;
55210;SDS011;41082;52.822;6.666;2023-08-21T09:53:12;4.57;;;0.40;;
55210;SDS011;41082;52.822;6.666;2023-08-21T09:55:38;3.60;;;0.20;;
55210;SDS011;41082;52.822;6.666;2023-08-21T09:58:05;3.42;;;0.20;;
55210;SDS011;41082;52.822;6.666;2023-08-21T10:00:33;1.95;;;0.25;;
55210;SDS011;41082;52.822;6.666;2023-08-21T10:03:11;3.60;;;0.35;;
55210;SDS011;41082;52.822;6.666;2023-08-21T10:05:39;3.03;;;0.47;;
55210;SDS011;41082;52.822;6.666;2023-08-21T10:08:06;3.40;;;0.40;;
55210;SDS011;41082;52.822;6.666;2023-08-21T10:10:32;1.98;;;0.25;;
55210;SDS011;41082;52.822;6.666;2023-08-21T10:13:02;2.95;;;0.30;;
55210;SDS011;41082;52.822;6.666;2023-08-21T10:15:29;7.25;;;0.40;;
55210;SDS011;41082;52.822;6.666;2023-08-21T10:18:00;3.78;;;0.50;;
55210;SDS011;41082;52.822;6.666;2023-08-21T10:21:15;4.73;;;0.37;;
55210;SDS011;41082;52.822;6.666;2023-08-21T10:23:47;2.50;;;0.32;;
55210;SDS011;41082;52.822;6.666;2023-08-21T10:26:13;3.42;;;0.40;;
55210;SDS011;41082;52.822;6.666;2023-08-21T10:31:37;4.10;;;0.73;;
55210;SDS011;41082;52.822;6.666;2023-08-21T10:34:10;3.90;;;0.40;;
55210;SDS011;41082;52.822;6.666;2023-08-21T10:39:22;3.97;;;0.40;;
55210;SDS011;41082;52.822;6.666;2023-08-21T10:41:55;4.00;;;0.30;;
55210;SDS011;41082;52.822;6.666;2023-08-21T10:49:57;2.85;;;0.55;;
55210;SDS011;41082;52.822;6.666;2023-08-21T10:52:29;3.60;;;0.50;;
55210;SDS011;41082;52.822;6.666;2023-08-21T10:54:59;3.15;;;0.40;;
55210;SDS011;41082;52.822;6.666;2023-08-21T10:57:26;1.88;;;0.30;;
55210;SDS011;41082;52.822;6.666;2023-08-21T11:02:29;3.10;;;0.50;;
55210;SDS011;41082;52.822;6.666;2023-08-21T11:04:57;2.70;;;0.30;;
55210;SDS011;41082;52.822;6.666;2023-08-21T11:07:23;4.60;;;0.57;;
55210;SDS011;41082;52.822;6.666;2023-08-21T11:09:50;2.60;;;0.30;;
55210;SDS011;41082;52.822;6.666;2023-08-21T11:12:17;3.20;;;0.40;;
55210;SDS011;41082;52.822;6.666;2023-08-21T11:14:44;3.17;;;0.40;;
55210;SDS011;41082;52.822;6.666;2023-08-21T11:17:10;5.78;;;0.50;;
55210;SDS011;41082;52.822;6.666;2023-08-21T11:19:36;3.92;;;0.65;;
55210;SDS011;41082;52.822;6.666;2023-08-21T11:22:03;7.15;;;0.65;;
55210;SDS011;41082;52.822;6.666;2023-08-21T11:27:03;2.78;;;0.45;;
55210;SDS011;41082;52.822;6.666;2023-08-21T11:29:39;5.87;;;1.57;;
55210;SDS011;41082;52.822;6.666;2023-08-21T11:32:24;3.22;;;0.38;;
55210;SDS011;41082;52.822;6.666;2023-08-21T11:34:56;4.18;;;0.30;;
55210;SDS011;41082;52.822;6.666;2023-08-21T11:37:26;2.03;;;0.22;;
55210;SDS011;41082;52.822;6.666;2023-08-21T11:39:52;3.20;;;0.30;;
55210;SDS011;41082;52.822;6.666;2023-08-21T11:42:37;4.72;;;0.45;;
55210;SDS011;41082;52.822;6.666;2023-08-21T11:45:03;4.15;;;0.47;;
55210;SDS011;41082;52.822;6.666;2023-08-21T11:47:32;3.83;;;0.50;;
55210;SDS011;41082;52.822;6.666;2023-08-21T11:50:02;6.28;;;0.60;;
55210;SDS011;41082;52.822;6.666;2023-08-21T11:52:29;3.97;;;0.45;;
55210;SDS011;41082;52.822;6.666;2023-08-21T11:54:56;3.05;;;0.35;;
55210;SDS011;41082;52.822;6.666;2023-08-21T11:57:23;1.73;;;0.30;;
55210;SDS011;41082;52.822;6.666;2023-08-21T11:59:49;1.70;;;0.30;;
55210;SDS011;41082;52.822;6.666;2023-08-21T12:02:22;3.03;;;0.32;;
55210;SDS011;41082;52.822;6.666;2023-08-21T12:05:03;5.35;;;0.43;;
55210;SDS011;41082;52.822;6.666;2023-08-21T12:07:30;2.33;;;0.30;;
55210;SDS011;41082;52.822;6.666;2023-08-21T12:09:57;2.97;;;0.70;;
55210;SDS011;41082;52.822;6.666;2023-08-21T12:12:23;2.63;;;0.30;;
55210;SDS011;41082;52.822;6.666;2023-08-21T12:14:49;4.78;;;0.65;;
55210;SDS011;41082;52.822;6.666;2023-08-21T12:17:15;3.20;;;0.30;;
55210;SDS011;41082;52.822;6.666;2023-08-21T12:19:40;2.45;;;0.40;;
55210;SDS011;41082;52.822;6.666;2023-08-21T12:22:07;2.40;;;0.30;;
55210;SDS011;41082;52.822;6.666;2023-08-21T12:24:33;2.30;;;0.30;;
55210;SDS011;41082;52.822;6.666;2023-08-21T12:26:59;1.65;;;0.30;;
55210;SDS011;41082;52.822;6.666;2023-08-21T12:29:24;1.83;;;0.25;;
55210;SDS011;41082;52.822;6.666;2023-08-21T12:31:50;3.10;;;0.47;;
55210;SDS011;41082;52.822;6.666;2023-08-21T12:34:15;3.55;;;0.43;;
55210;SDS011;41082;52.822;6.666;2023-08-21T12:36:41;2.22;;;0.35;;
55210;SDS011;41082;52.822;6.666;2023-08-21T12:39:07;2.42;;;0.30;;
55210;SDS011;41082;52.822;6.666;2023-08-21T12:41:33;5.00;;;0.30;;
55210;SDS011;41082;52.822;6.666;2023-08-21T12:43:59;4.25;;;0.43;;
55210;SDS011;41082;52.822;6.666;2023-08-21T12:46:25;2.85;;;0.28;;
55210;SDS011;41082;52.822;6.666;2023-08-21T12:48:52;3.53;;;0.60;;
55210;SDS011;41082;52.822;6.666;2023-08-21T12:51:18;3.13;;;0.43;;
55210;SDS011;41082;52.822;6.666;2023-08-21T12:53:44;2.92;;;0.30;;
55210;SDS011;41082;52.822;6.666;2023-08-21T12:56:10;5.68;;;0.30;;
55210;SDS011;41082;52.822;6.666;2023-08-21T12:58:35;3.45;;;0.30;;
55210;SDS011;41082;52.822;6.666;2023-08-21T13:01:01;1.55;;;0.57;;
55210;SDS011;41082;52.822;6.666;2023-08-21T13:03:28;1.95;;;0.30;;
55210;SDS011;41082;52.822;6.666;2023-08-21T13:05:54;3.50;;;0.35;;
55210;SDS011;41082;52.822;6.666;2023-08-21T13:08:20;2.53;;;0.30;;
55210;SDS011;41082;52.822;6.666;2023-08-21T13:10:46;1.85;;;0.28;;
55210;SDS011;41082;52.822;6.666;2023-08-21T13:13:12;1.92;;;0.30;;
55210;SDS011;41082;52.822;6.666;2023-08-21T13:15:37;3.78;;;0.30;;
55210;SDS011;41082;52.822;6.666;2023-08-21T13:18:03;4.78;;;0.30;;
55210;SDS011;41082;52.822;6.666;2023-08-21T13:20:29;3.60;;;0.30;;
55210;SDS011;41082;52.822;6.666;2023-08-21T13:22:55;2.42;;;0.20;;
55210;SDS011;41082;52.822;6.666;2023-08-21T13:25:21;3.63;;;0.50;;
55210;SDS011;41082;52.822;6.666;2023-08-21T13:27:48;3.33;;;0.50;;
55210;SDS011;41082;52.822;6.666;2023-08-21T13:30:15;4.47;;;0.45;;
55210;SDS011;41082;52.822;6.666;2023-08-21T13:32:40;2.33;;;0.35;;
55210;SDS011;41082;52.822;6.666;2023-08-21T13:35:06;3.63;;;0.25;;
55210;SDS011;41082;52.822;6.666;2023-08-21T13:37:38;2.90;;;0.20;;
55210;SDS011;41082;52.822;6.666;2023-08-21T13:40:05;2.65;;;0.25;;
55210;SDS011;41082;52.822;6.666;2023-08-21T13:45:11;3.95;;;0.47;;
55210;SDS011;41082;52.822;6.666;2023-08-21T13:47:39;2.20;;;0.25;;
55210;SDS011;41082;52.822;6.666;2023-08-21T13:50:05;2.60;;;0.50;;
55210;SDS011;41082;52.822;6.666;2023-08-21T13:52:32;3.13;;;0.68;;
55210;SDS011;41082;52.822;6.666;2023-08-21T13:54:58;4.03;;;0.77;;
55210;SDS011;41082;52.822;6.666;2023-08-21T13:57:24;2.83;;;0.47;;
55210;SDS011;41082;52.822;6.666;2023-08-21T13:59:49;1.40;;;0.20;;
55210;SDS011;41082;52.822;6.666;2023-08-21T14:02:15;1.65;;;0.20;;
55210;SDS011;41082;52.822;6.666;2023-08-21T14:04:41;2.22;;;0.30;;
55210;SDS011;41082;52.822;6.666;2023-08-21T14:07:06;3.25;;;0.28;;
55210;SDS011;41082;52.822;6.666;2023-08-21T14:09:32;2.83;;;0.40;;
55210;SDS011;41082;52.822;6.666;2023-08-21T14:11:57;3.78;;;0.50;;
55210;SDS011;41082;52.822;6.666;2023-08-21T14:14:23;2.42;;;0.35;;
55210;SDS011;41082;52.822;6.666;2023-08-21T14:16:48;2.53;;;0.28;;
55210;SDS011;41082;52.822;6.666;2023-08-21T14:19:14;5.25;;;0.47;;
55210;SDS011;41082;52.822;6.666;2023-08-21T14:21:39;2.83;;;0.20;;
55210;SDS011;41082;52.822;6.666;2023-08-21T14:24:05;1.30;;;0.10;;
55210;SDS011;41082;52.822;6.666;2023-08-21T14:26:32;2.53;;;0.28;;
55210;SDS011;41082;52.822;6.666;2023-08-21T14:28:58;2.10;;;0.10;;
55210;SDS011;41082;52.822;6.666;2023-08-21T14:31:23;3.45;;;0.30;;
55210;SDS011;41082;52.822;6.666;2023-08-21T14:33:49;2.50;;;0.20;;
55210;SDS011;41082;52.822;6.666;2023-08-21T14:36:15;2.05;;;0.25;;
55210;SDS011;41082;52.822;6.666;2023-08-21T14:38:41;2.47;;;0.20;;
55210;SDS011;41082;52.822;6.666;2023-08-21T14:41:06;1.95;;;0.20;;
55210;SDS011;41082;52.822;6.666;2023-08-21T14:43:32;2.42;;;0.30;;
55210;SDS011;41082;52.822;6.666;2023-08-21T14:45:58;2.15;;;0.43;;
55210;SDS011;41082;52.822;6.666;2023-08-21T14:48:23;1.75;;;0.35;;
55210;SDS011;41082;52.822;6.666;2023-08-21T14:50:49;4.25;;;0.20;;
55210;SDS011;41082;52.822;6.666;2023-08-21T14:53:15;3.42;;;0.20;;
55210;SDS011;41082;52.822;6.666;2023-08-21T14:55:40;2.08;;;0.20;;
55210;SDS011;41082;52.822;6.666;2023-08-21T14:58:06;2.15;;;0.20;;
55210;SDS011;41082;52.822;6.666;2023-08-21T15:00:34;1.38;;;0.10;;
55210;SDS011;41082;52.822;6.666;2023-08-21T15:03:00;2.95;;;0.25;;
55210;SDS011;41082;52.822;6.666;2023-08-21T15:05:26;1.27;;;0.30;;
55210;SDS011;41082;52.822;6.666;2023-08-21T15:07:52;2.00;;;0.20;;